Berea, Ohio
Current Conditions -  °F | °C
As of 1:51 PM on Saturday 20 Dec 2014 (Local Time) from KCLE Reporting Station
Overcast Overcast  
Wind Chill: 31°   Ceiling: 2800
Heat Index: 31°   Visibility: 10mi
Dew Point: 21°   Wind: 0mph
Humidity: 67%   Direction: NA
Pressure: 30.28"   Gusts: NA
Location:  41.37°N, 81.85°W
Report Text: KCLE 201851Z 00000KT 10SM OVC028 M01/M06 A3028 RMK AO2 SLP263 T10061061 $
Loading
Personal Weather Stations






























Interactive Weather Map New forecast layout! Learn more

10-Day Weather Forecast

Advertisements
Track Severe Weather on mobile